WetterOnline ( https://www.wetteronline.de )

Wetter aktuell Putgarten

Aktuelles Wetter: Kap Arkona/Rügen (42m)

6-stündlich | Neueste Meldungen
Ortszeit Temperatur Wetter
Do, 18.04. 14:00 9.6° C wolkenlos
Do, 18.04. 8:00 6.6° C bedeckt
Do, 18.04. 2:00 4.2° C leicht bewölkt
Mi, 17.04. 20:00 4.8° C wolkenlos
Mi, 17.04. 14:00 7.7° C wolkenlos
Mi, 17.04. 8:00 4.8° C bedeckt
Mi, 17.04. 2:00 4.6° C leichter Regen
Di, 16.04. 20:00 4.0° C bewölkt
Ortszeit Temperatur Wetter
Do, 18.04. 18:30 7.7° C leicht bewölkt
Do, 18.04. 18:20 7.7° C leicht bewölkt
Do, 18.04. 18:10 8.0° C leicht bewölkt
Do, 18.04. 18:00 9.3° C wolkig
Do, 18.04. 17:50 9.3° C wolkig
Do, 18.04. 17:40 8.0° C wolkig
Do, 18.04. 17:30 7.0° C bewölkt
Do, 18.04. 17:00 6.8° C wolkig
Do, 18.04. 16:30 8.2° C wolkig
Do, 18.04. 16:00 9.1° C leicht bewölkt
Do, 18.04. 15:30 9.3° C wolkenlos
Ortszeit Relative Feuchte Sichtweite
Do, 18.04. 14:00 44% >70 km
Do, 18.04. 8:00 87% 40 km
Do, 18.04. 2:00 84% >70 km
Mi, 17.04. 20:00 76% >70 km
Mi, 17.04. 14:00 78% 55 km
Mi, 17.04. 8:00 83% 65 km
Mi, 17.04. 2:00 86% 45 km
Di, 16.04. 20:00 86% 50 km
Ortszeit Relative Feuchte Sichtweite
Do, 18.04. 18:30 72% 60 km
Do, 18.04. 18:20 72% -
Do, 18.04. 18:10 69% -
Do, 18.04. 18:00 67% 65 km
Do, 18.04. 17:50 67% -
Do, 18.04. 17:40 66% -
Do, 18.04. 17:30 77% 50 km
Do, 18.04. 17:00 78% >70 km
Do, 18.04. 16:30 63% 60 km
Do, 18.04. 16:00 61% >70 km
Do, 18.04. 15:30 71% >70 km
Ortszeit Niederschlagsmenge Niederschlagsart
Do, 18.04. 14:00 0.0 l/m2 in 6 Std. -
Do, 18.04. 8:00 0.1 l/m2 in 12 Std. Regen
Do, 18.04. 2:00 0.0 l/m2 in 6 Std. -
Mi, 17.04. 20:00 0.0 l/m2 in 12 Std. -
Mi, 17.04. 14:00 0.0 l/m2 in 6 Std. -
Mi, 17.04. 8:00 0.6 l/m2 in 12 Std. Regen
Mi, 17.04. 2:00 0.1 l/m2 in 6 Std. Regen
Di, 16.04. 20:00 0.1 l/m2 in 12 Std. -
Ortszeit Niederschlagsmenge Niederschlagsart
Do, 18.04. 18:30 0.0 l/m2 in 30 Min -
Do, 18.04. 18:20 keine Meldung -
Do, 18.04. 18:10 keine Meldung -
Do, 18.04. 18:00 <0.05 l/m2 in 1 Std. Regen
Do, 18.04. 17:50 keine Meldung -
Do, 18.04. 17:40 keine Meldung -
Do, 18.04. 17:30 <0.05 l/m2 in 30 Min Schneeregen
Do, 18.04. 17:00 0.0 l/m2 in 1 Std. -
Do, 18.04. 16:30 0.0 l/m2 in 30 Min -
Do, 18.04. 16:00 0.0 l/m2 in 1 Std. -
Do, 18.04. 15:30 0.0 l/m2 in 30 Min -
Ortszeit Stärke Spitze Richtung
km/h Bft. km/h Grad Sektor
Do, 18.04. 14:00 25 4 36 270° W
Do, 18.04. 8:00 18 3 29 290° W
Do, 18.04. 2:00 4 1 14 250° W
Mi, 17.04. 20:00 7 2 35 70° O
Mi, 17.04. 14:00 25 4 32 50° NO
Mi, 17.04. 8:00 11 2 22 190° S
Mi, 17.04. 2:00 9 2 30 320° NW
Di, 16.04. 20:00 22 4 61 40° NO
Ortszeit Stärke Spitze Richtung
km/h Bft. km/h Grad Sektor
Do, 18.04. 18:30 30 5 44 260° W
Do, 18.04. 18:20 30 5 - 260° W
Do, 18.04. 18:10 31 5 - 260° W
Do, 18.04. 18:00 35 5 44 250° W
Do, 18.04. 17:50 35 5 - 250° W
Do, 18.04. 17:40 32 5 - 260° W
Do, 18.04. 17:30 22 4 36 300° NW
Do, 18.04. 17:00 22 4 54 330° NW
Do, 18.04. 16:30 36 5 54 280° W
Do, 18.04. 16:00 43 6 54 270° W
Do, 18.04. 15:30 35 5 48 280° W
Ortszeit Untergrenze Bedeckung Gattung
total tief tief mittel hoch
Do, 18.04. 14:00 - 0/8 0/8 - - -
Do, 18.04. 8:00 1800 m 8/8 8/8 - - -
Do, 18.04. 2:00 2100 m 2/8 2/8 - - -
Mi, 17.04. 20:00 - 0/8 0/8 - - -
Mi, 17.04. 14:00 - 0/8 0/8 - - -
Mi, 17.04. 8:00 990 m 8/8 8/8 - - -
Mi, 17.04. 2:00 990 m 3/8 3/8 - - -
Di, 16.04. 20:00 390 m 7/8 7/8 - - -
Ortszeit Bedeckungsgrad in Achtel und Wolkenuntergrenze
Do, 18.04. 18:30 2(1020m) 3(1290m)
Do, 18.04. 18:20 2(1020m) 3(1290m) 3(1500m)
Do, 18.04. 18:10 2
Do, 18.04. 18:00 1(840m) 4(1800m) 6(2400m)
Do, 18.04. 17:50 1(840m) 4(1800m) 6(2400m)
Do, 18.04. 17:40 6
Do, 18.04. 17:30 3(690m) 5(840m) 7(990m)
Do, 18.04. 17:00 1(600m) 5(1500m) 6(2700m)
Do, 18.04. 16:30 1(2400m) 5(4200m) 7(6000m)
Do, 18.04. 16:00 2(4500m) 4(7500m)
Do, 18.04. 15:30 keine Wolken
Ortszeit Luftdruck NN (hPa) Tendenz (hPa in 3 Std.)
Do, 18.04. 14:00 1014 - 0,7
Do, 18.04. 8:00 1014 + 0,7
Do, 18.04. 2:00 1013 + 1,0
Mi, 17.04. 20:00 1011 + 1,0
Mi, 17.04. 14:00 1009 + 0,9
Mi, 17.04. 8:00 1006 + 0,7
Mi, 17.04. 2:00 1006 + 0,9
Di, 16.04. 20:00 1003 + 2,0
Ortszeit Luftdruck NN (hPa) Tendenz (hPa in 3 Std.)
Do, 18.04. 18:30 1013 - 0,4
Do, 18.04. 18:20 1013 keine Meldung
Do, 18.04. 18:10 1013 keine Meldung
Do, 18.04. 18:00 1013 - 0,7
Do, 18.04. 17:50 1013 keine Meldung
Do, 18.04. 17:40 1013 keine Meldung
Do, 18.04. 17:30 1013 - 0,6
Do, 18.04. 17:00 1014 - 0,3
Do, 18.04. 16:30 1013 - 0,8
Do, 18.04. 16:00 1013 - 0,9
Do, 18.04. 15:30 1013 - 0,9
Ortszeit Schneehöhe (cm)
Do, 18.04. 14:00 0
Do, 18.04. 8:00 0
Do, 18.04. 2:00 0
Mi, 17.04. 20:00 0
Mi, 17.04. 14:00 0
Mi, 17.04. 8:00 0
Mi, 17.04. 2:00 0
Di, 16.04. 20:00 0
Ortszeit Schneehöhe (cm)
Do, 18.04. 18:30 0
Do, 18.04. 18:20 0
Do, 18.04. 18:10 -
Do, 18.04. 18:00 0
Do, 18.04. 17:50 0
Do, 18.04. 17:40 -
Do, 18.04. 17:30 0
Do, 18.04. 17:00 0
Do, 18.04. 16:30 0
Do, 18.04. 16:00 0
Do, 18.04. 15:30 0
Link zu dieser Seite / Seite empfehlen

Das Wetter in ...